EDT,Max TemperatureF,Mean TemperatureF,Min TemperatureF,Max Dew PointF,MeanDew PointF,Min DewpointF,Max Humidity, Mean Humidity, Min Humidity, Max Sea Level PressureIn, Mean Sea Level PressureIn, Min Sea Level PressureIn, Max VisibilityMiles, Mean VisibilityMiles, Min VisibilityMiles, Max Wind SpeedMPH, Mean Wind SpeedMPH, Max Gust SpeedMPH,PrecipitationIn, CloudCover, Events, WindDirDegrees
2012-10-1,71,64,60,65,60,57,96,83,64,29.95,29.91,29.88,10,8,4,8,2,,0.01,8,Rain,52
2012-10-2,84,76,69,77,73,64,100,91,74,29.98,29.89,29.85,10,7,0,8,2,,0.35,6,Fog-Rain-Thunderstorm,165
2012-10-3,86,78,73,75,74,72,100,89,67,30.16,30.07,29.99,10,7,0,8,4,,0.07,4,Fog-Rain,184
2012-10-4,79,71,64,71,66,62,93,81,58,30.24,30.18,30.14,10,9,7,8,3,,0.01,3,Rain,232
2012-10-5,79,68,57,64,60,57,100,84,50,30.17,30.09,30.03,10,7,0,5,1,,0.01,0,Fog,180
2012-10-6,84,68,53,66,57,54,100,88,44,30.03,29.98,29.88,10,4,0,10,1,,0.01,1,Fog,262
2012-10-7,66,60,53,60,51,46,94,82,60,30.16,30.06,29.96,10,9,2,14,9,21,0.06,8,Rain,12
2012-10-8,53,52,50,50,48,43,96,88,71,30.23,30.16,30.12,10,7,1,16,9,23,1.06,8,Rain-Thunderstorm,15
2012-10-9,57,54,50,55,52,48,100,93,87,30.16,30.11,30.08,10,7,3,12,7,17,0.04,8,,350
2012-10-10,71,62,53,55,53,50,100,80,49,30.10,30.04,29.97,10,9,5,10,3,,0.00,4,,246
2012-10-11,66,56,45,51,44,40,93,71,43,30.31,30.24,30.11,10,10,5,9,4,,0.00,0,,345
2012-10-12,73,58,42,51,45,40,96,76,35,30.37,30.22,30.16,10,7,0,10,2,,0.00,0,Fog,333
2012-10-13,68,56,43,50,42,39,93,66,43,30.48,30.41,30.36,10,10,10,10,6,16,0.00,0,,31
2012-10-14,79,62,44,61,48,43,100,85,43,30.34,30.25,30.04,10,6,0,9,1,,0.00,0,Fog,195
2012-10-15,78,68,59,67,63,56,100,89,60,30.03,29.82,29.71,10,6,0,9,4,21,0.30,4,Fog-Rain-Thunderstorm,228
2012-10-16,69,57,45,51,45,43,97,72,40,29.96,29.91,29.85,10,9,2,9,5,,0.00,0,,331
2012-10-17,71,58,46,53,46,44,97,79,41,30.03,29.98,29.94,10,8,2,6,1,,0.01,0,,176
2012-10-18,79,61,44,64,49,43,100,89,50,29.95,29.92,29.81,10,4,0,10,1,,0.01,2,Fog,139
2012-10-19,80,67,54,66,60,44,100,82,34,29.80,29.76,29.69,10,6,0,16,3,22,0.05,5,Fog-Rain,194
2012-10-20,73,58,45,49,45,40,93,66,32,29.95,29.83,29.77,10,10,9,7,3,,0.00,0,,230
2012-10-21,68,55,44,46,42,38,96,68,34,30.16,30.10,29.96,10,8,1,10,3,16,0.00,0,,347
2012-10-22,73,56,39,50,43,37,100,80,31,30.24,30.19,30.15,10,6,0,6,1,,0.01,0,Fog,299
2012-10-23,79,60,42,56,48,41,97,72,34,30.20,30.16,30.11,10,9,4,6,1,,0.00,0,,234
2012-10-24,81,64,46,58,52,46,97,75,35,30.20,30.15,30.09,10,10,6,9,3,,0.01,0,,217
2012-10-25,82,64,46,60,52,46,100,85,42,30.19,30.14,30.11,10,6,1,5,1,,0.01,0,,98
2012-10-26,75,64,55,64,60,54,100,87,68,30.12,30.05,29.93,10,6,0,13,5,21,0.04,7,Fog-Rain,25
2012-10-27,69,66,62,63,60,56,94,83,68,29.91,29.77,29.68,10,10,10,22,14,33,0.00,7,,18
2012-10-28,63,59,55,55,50,47,83,70,60,29.65,29.57,29.51,10,10,8,25,18,36,0.00,7,,349
2012-10-29,54,48,42,52,45,38,94,87,71,29.52,29.41,29.28,10,8,4,21,15,36,0.73,8,Rain,286
2012-10-30,51,46,42,39,36,33,89,71,54,29.60,29.42,29.28,10,10,10,17,13,29,0.03,6,Rain,228
2012-10-31,57,46,37,40,35,33,86,65,47,29.77,29.68,29.60,10,10,10,14,7,22,0.00,4,,233